Time;durP1;ratioP1;P1;durP2;ratioP2;P2;SDS_P1;SDS_P2;PMS_P1;PMS_P2;Temp;Humidity;BMP_temperature;BMP_pressure;BME280_temperature;BME280_humidity;BME280_pressure;Samples;Min_cycle;Max_cycle;Signal;HPM_P1;HPM_P2
2024/03/18 00:00:50;;;;;;;5.73;4.90;;;;;;;9.62;57.65;99067.81;5148517;27;41316;-80
2024/03/18 00:03:17;;;;;;;8.03;5.27;;;;;;;9.63;57.94;99072.16;5132805;27;40653;-81
2024/03/18 00:05:45;;;;;;;10.47;6.23;;;;;;;9.63;58.34;99070.38;5115306;27;41355;-77
2024/03/18 00:08:14;;;;;;;7.53;5.93;;;;;;;9.63;58.74;99059.78;5132509;27;42864;-78
2024/03/18 00:10:41;;;;;;;7.10;5.63;;;;;;;9.64;58.47;99064.13;5132094;27;42251;-74
2024/03/18 00:13:09;;;;;;;7.60;5.70;;;;;;;9.65;58.18;99068.47;5132696;27;39970;-81
2024/03/18 00:15:36;;;;;;;6.33;5.57;;;;;;;9.66;58.39;99054.31;5133509;27;41721;-77
2024/03/18 00:18:06;;;;;;;7.17;5.50;;;;;;;9.65;58.55;99051.75;5133579;27;42641;-74
2024/03/18 00:20:33;;;;;;;9.30;6.03;;;;;;;9.66;58.41;99048.19;5115117;27;41135;-77
2024/03/18 00:23:01;;;;;;;6.87;5.33;;;;;;;9.66;58.54;99042.88;5149829;27;38340;-80
2024/03/18 00:25:28;;;;;;;7.97;6.03;;;;;;;9.66;58.77;99042.88;5133247;27;41691;-80
2024/03/18 00:27:55;;;;;;;7.77;5.90;;;;;;;9.47;58.78;99006.06;5133745;27;42504;-79
2024/03/18 00:30:23;;;;;;;6.87;5.30;;;;;;;9.66;58.71;99043.75;5114607;27;41266;-78
2024/03/18 00:32:50;;;;;;;7.50;5.20;;;;;;;9.66;58.50;99043.75;5132298;27;39102;-78
2024/03/18 00:35:19;;;;;;;6.23;4.97;;;;;;;9.67;58.81;99039.31;5131807;27;40170;-78
2024/03/18 00:37:47;;;;;;;6.93;5.10;;;;;;;9.65;58.66;99022.66;5132234;27;42882;-78
2024/03/18 00:40:15;;;;;;;6.40;5.37;;;;;;;9.55;58.67;98998.53;5131887;27;41096;-77
2024/03/18 00:42:44;;;;;;;6.43;4.90;;;;;;;9.65;58.78;99026.16;5114930;27;38827;-80
2024/03/18 00:45:14;;;;;;;5.80;4.60;;;;;;;9.65;58.50;99035.88;5131657;27;42065;-82
2024/03/18 00:47:42;;;;;;;7.53;5.33;;;;;;;9.62;58.66;99029.00;5149758;27;42506;-80
2024/03/18 00:50:11;;;;;;;7.80;5.10;;;;;;;9.60;58.80;99022.09;5132881;27;41776;-76
2024/03/18 00:52:40;;;;;;;6.93;5.20;;;;;;;9.58;58.61;99022.16;5166961;27;40882;-74
2024/03/18 00:55:10;;;;;;;7.80;5.43;;;;;;;9.57;58.94;99022.25;5131910;27;41776;-79
2024/03/18 00:57:38;;;;;;;6.60;5.23;;;;;;;9.42;58.89;98996.66;5115028;27;43137;-75
2024/03/18 01:00:11;;;;;;;6.07;4.97;;;;;;;9.54;58.71;99007.41;5130957;27;42262;-80
2024/03/18 01:02:39;;;;;;;6.73;4.87;;;;;;;9.53;58.81;99015.41;5132265;27;39128;-77
2024/03/18 01:05:10;;;;;;;8.10;5.23;;;;;;;9.52;58.68;99019.84;5114275;27;41966;-76
2024/03/18 01:07:40;;;;;;;6.70;4.83;;;;;;;9.51;58.79;99015.53;5166995;27;42531;-79
2024/03/18 01:10:09;;;;;;;6.03;4.70;;;;;;;9.51;59.01;99018.19;5131691;27;42226;-77
2024/03/18 01:12:36;;;;;;;7.53;5.30;;;;;;;9.48;59.31;99007.75;5149573;27;38754;-76
2024/03/18 01:15:05;;;;;;;8.17;5.37;;;;;;;9.50;59.26;99008.53;5135245;27;41552;-76
2024/03/18 01:17:34;;;;;;;5.20;4.60;;;;;;;9.50;59.06;99010.31;5135349;27;43065;-75
2024/03/18 01:20:09;;;;;;;7.47;5.30;;;;;;;9.46;59.12;98992.91;5134877;27;41199;-80
2024/03/18 01:22:36;;;;;;;5.93;4.53;;;;;;;9.50;59.25;99008.53;5135950;27;40262;-76
2024/03/18 01:25:06;;;;;;;5.93;4.70;;;;;;;9.49;59.33;99006.81;5134877;27;41667;-76
2024/03/18 01:27:34;;;;;;;4.90;4.23;;;;;;;9.49;59.20;99006.81;5135449;27;42922;-78
2024/03/18 01:30:02;;;;;;;6.63;5.00;;;;;;;9.49;59.60;98998.91;5134052;27;42228;-80
2024/03/18 01:32:29;;;;;;;7.37;5.20;;;;;;;9.41;59.62;98987.88;5135277;27;39203;-77
2024/03/18 01:34:57;;;;;;;7.37;5.90;;;;;;;9.47;60.84;98984.91;5136108;27;41714;-74
2024/03/18 01:37:24;;;;;;;10.07;6.53;;;;;;;9.45;60.88;98984.13;5135145;27;42927;-75
2024/03/18 01:39:52;;;;;;;7.60;5.97;;;;;;;9.33;60.52;98966.31;5135794;27;42188;-80
2024/03/18 01:42:21;;;;;;;7.63;5.80;;;;;;;9.46;60.51;98977.06;5135373;27;39927;-77
2024/03/18 01:44:53;;;;;;;7.73;6.27;;;;;;;9.47;60.52;98984.06;5135031;27;41714;-74
2024/03/18 01:47:21;;;;;;;6.90;5.23;;;;;;;9.46;60.38;98982.34;5132017;27;43704;-77
2024/03/18 01:49:50;;;;;;;6.23;5.17;;;;;;;9.45;60.37;98984.13;5169660;27;42178;-83
2024/03/18 01:52:19;;;;;;;6.53;5.37;;;;;;;9.44;60.37;98979.78;5152354;27;38872;-74
2024/03/18 01:54:48;;;;;;;7.37;5.27;;;;;;;9.42;60.27;98968.44;5117270;27;42428;-76
2024/03/18 01:57:16;;;;;;;8.30;5.90;;;;;;;9.44;60.33;98963.94;5134871;27;42774;-76
2024/03/18 01:59:46;;;;;;;6.80;4.93;;;;;;;9.39;60.39;98958.06;5168559;27;43228;-78
2024/03/18 02:02:13;;;;;;;6.87;5.30;;;;;;;9.34;60.13;98944.25;5134753;27;38897;-81
2024/03/18 02:04:41;;;;;;;6.20;4.97;;;;;;;9.41;60.28;98964.09;5135635;27;41441;-75
2024/03/18 02:07:21;;;;;;;7.53;5.30;;;;;;;9.39;61.09;98959.84;5135940;27;42877;-79
2024/03/18 02:09:49;;;;;;;6.80;5.00;;;;;;;9.35;60.91;98952.09;5151719;27;41332;-78
2024/03/18 02:12:16;;;;;;;7.77;4.97;;;;;;;9.36;60.56;98958.22;5134932;27;40946;-79
2024/03/18 02:14:51;;;;;;;6.33;5.00;;;;;;;9.34;60.88;98957.47;5135608;27;42707;-79
2024/03/18 02:17:19;;;;;;;7.00;5.37;;;;;;;9.31;60.84;98957.63;5132483;27;43813;-79
2024/03/18 02:19:46;;;;;;;6.93;5.40;;;;;;;9.32;60.84;98954.03;5135364;27;42378;-76
2024/03/18 02:22:15;;;;;;;8.17;5.50;;;;;;;9.27;60.93;98953.47;5134255;27;38977;-78
2024/03/18 02:24:43;;;;;;;6.97;5.00;;;;;;;9.27;60.85;98950.81;5133887;27;40740;-79
2024/03/18 02:27:12;;;;;;;6.83;4.67;;;;;;;9.25;61.06;98953.53;5134110;27;44748;-80
2024/03/18 02:29:39;;;;;;;6.30;5.10;;;;;;;9.24;60.76;98964.19;5133444;27;42067;-77
2024/03/18 02:32:07;;;;;;;6.00;4.53;;;;;;;9.20;60.80;98963.50;5117270;27;38914;-81
2024/03/18 02:34:35;;;;;;;8.27;6.07;;;;;;;9.10;61.19;98942.97;5134175;27;40649;-79
2024/03/18 02:37:03;;;;;;;5.97;5.33;;;;;;;9.10;61.19;98948.25;5134199;27;44086;-77
2024/03/18 02:39:32;;;;;;;6.73;5.40;;;;;;;9.02;62.85;98939.91;5133475;27;41111;-79
2024/03/18 02:42:00;;;;;;;7.73;6.53;;;;;;;8.84;65.08;98910.91;5134081;27;40342;-75
2024/03/18 02:44:28;;;;;;;11.23;7.53;;;;;;;8.81;65.81;98913.72;5116558;27;43966;-77
2024/03/18 02:46:55;;;;;;;10.60;7.33;;;;;;;8.76;65.19;98907.84;5135148;27;43934;-77
2024/03/18 02:49:23;;;;;;;8.20;6.60;;;;;;;8.71;65.11;98917.78;5134086;27;43152;-75
2024/03/18 02:51:50;;;;;;;8.00;6.10;;;;;;;8.65;64.49;98926.06;5133825;27;40455;-75
2024/03/18 02:54:18;;;;;;;7.27;5.60;;;;;;;8.36;64.50;98881.88;5168521;27;41478;-77
2024/03/18 02:56:47;;;;;;;7.70;6.20;;;;;;;8.55;64.66;98920.38;5134642;27;42998;-80
2024/03/18 02:59:14;;;;;;;8.00;6.27;;;;;;;8.50;64.48;98916.31;5167852;27;43028;-81
2024/03/18 03:01:41;;;;;;;7.77;5.53;;;;;;;8.44;64.68;98912.19;5134393;27;39923;-80
2024/03/18 03:04:09;;;;;;;8.00;6.03;;;;;;;8.40;64.93;98910.66;5133562;27;42137;-76
2024/03/18 03:06:38;;;;;;;6.17;5.53;;;;;;;8.36;64.73;98902.97;5132979;27;41747;-78
2024/03/18 03:09:06;;;;;;;6.47;5.53;;;;;;;8.33;64.97;98908.41;5133415;27;42764;-80
2024/03/18 03:11:33;;;;;;;5.53;4.90;;;;;;;8.26;64.58;98903.44;5133356;27;39807;-74
2024/03/18 03:14:02;;;;;;;5.57;4.20;;;;;;;8.23;64.52;98902.72;5167943;27;41775;-81
2024/03/18 03:16:30;;;;;;;5.63;4.80;;;;;;;8.20;64.72;98897.63;5134314;27;43511;-80
2024/03/18 03:18:59;;;;;;;7.20;4.80;;;;;;;8.15;64.64;98899.66;5134715;27;42193;-77
2024/03/18 03:21:27;;;;;;;5.53;4.80;;;;;;;8.08;64.46;98893.81;5134143;27;40948;-81
2024/03/18 03:23:55;;;;;;;6.67;5.00;;;;;;;8.02;64.21;98894.16;5150361;27;41190;-76
2024/03/18 03:26:22;;;;;;;5.47;4.77;;;;;;;7.95;64.51;98887.47;5150121;27;41798;-79
2024/03/18 03:28:50;;;;;;;7.57;5.10;;;;;;;7.90;64.84;98884.25;5134439;27;42055;-77
2024/03/18 03:31:19;;;;;;;6.07;4.77;;;;;;;7.84;65.59;98884.53;5132573;27;41105;-78
2024/03/18 03:33:46;;;;;;;9.40;5.80;;;;;;;7.78;66.67;98869.91;5167841;27;42881;-77
2024/03/18 03:36:14;;;;;;;8.00;6.13;;;;;;;7.72;66.98;98874.63;5133269;27;42664;-76
2024/03/18 03:38:41;;;;;;;8.30;6.10;;;;;;;7.68;67.14;98879.19;5133088;27;43059;-78
2024/03/18 03:41:09;;;;;;;6.63;5.37;;;;;;;7.64;66.62;98882.06;5115700;27;38885;-76
2024/03/18 03:43:36;;;;;;;7.37;5.37;;;;;;;7.62;67.09;98889.19;5134185;27;42746;-80
2024/03/18 03:46:04;;;;;;;7.67;5.87;;;;;;;7.57;67.31;98879.72;5132835;27;42692;-81
2024/03/18 03:48:33;;;;;;;6.63;5.20;;;;;;;7.55;67.43;98884.22;5134070;27;42947;-77
2024/03/18 03:51:01;;;;;;;6.90;6.20;;;;;;;7.52;67.93;98883.53;5132627;27;39115;-79
2024/03/18 03:53:28;;;;;;;8.17;6.13;;;;;;;7.32;67.51;98855.53;5115717;27;41981;-78
2024/03/18 03:55:57;;;;;;;7.40;5.90;;;;;;;7.34;67.76;98852.81;5133653;27;42555;-78
2024/03/18 03:58:26;;;;;;;6.83;5.80;;;;;;;7.47;67.48;98883.75;5132682;27;42359;-78
2024/03/18 04:00:54;;;;;;;5.77;4.97;;;;;;;7.47;67.17;98881.13;5131389;27;38927;-79
2024/03/18 04:03:23;;;;;;;7.90;5.60;;;;;;;7.49;67.10;98888.94;5131669;27;42686;-76
2024/03/18 04:05:54;;;;;;;6.93;4.97;;;;;;;7.51;66.80;98892.38;5131111;27;44754;-78
2024/03/18 04:08:22;;;;;;;6.23;4.70;;;;;;;7.54;66.54;98893.03;5128502;27;42089;-78
2024/03/18 04:10:50;;;;;;;6.20;5.37;;;;;;;7.61;66.58;98895.41;5132391;27;39910;-81
2024/03/18 04:13:17;;;;;;;7.37;5.87;;;;;;;7.65;66.25;98889.06;5131435;27;41660;-76
2024/03/18 04:15:45;;;;;;;5.73;4.57;;;;;;;7.73;66.31;98876.31;5113969;27;42828;-79
2024/03/18 04:18:13;;;;;;;7.03;5.47;;;;;;;7.74;67.34;98867.50;5133496;27;43139;-78
2024/03/18 04:20:40;;;;;;;7.30;5.80;;;;;;;7.87;66.79;98879.13;5132376;27;40045;-79
2024/03/18 04:23:10;;;;;;;7.53;5.87;;;;;;;7.94;66.44;98876.06;5132118;27;41691;-78
2024/03/18 04:25:37;;;;;;;6.33;5.37;;;;;;;7.96;66.59;98868.09;5149230;27;42606;-76
2024/03/18 04:28:07;;;;;;;9.23;6.10;;;;;;;8.07;66.42;98870.16;5133542;27;42110;-78
2024/03/18 04:30:35;;;;;;;7.30;5.13;;;;;;;8.13;66.02;98873.34;5131679;27;38545;-79
2024/03/18 04:33:02;;;;;;;9.17;5.67;;;;;;;8.13;66.80;98854.88;5132309;27;40984;-81
2024/03/18 04:35:30;;;;;;;8.30;5.73;;;;;;;8.21;66.76;98860.59;5132029;27;44176;-78
2024/03/18 04:37:57;;;;;;;7.80;5.87;;;;;;;8.25;66.34;98856.88;5133288;27;41975;-81
2024/03/18 04:40:27;;;;;;;8.43;6.53;;;;;;;8.29;67.76;98854.91;5114460;27;40532;-78
2024/03/18 04:42:56;;;;;;;9.33;6.70;;;;;;;8.31;67.39;98847.78;5132414;27;41806;-77
2024/03/18 04:45:25;;;;;;;8.40;6.10;;;;;;;8.36;67.14;98860.75;5131990;27;42891;-78
2024/03/18 04:47:54;;;;;;;8.30;6.23;;;;;;;8.37;67.57;98855.41;5135808;27;43246;-78
2024/03/18 04:50:24;;;;;;;9.33;7.00;;;;;;;8.40;68.18;98854.41;5135521;27;40011;-76
2024/03/18 04:52:54;;;;;;;9.83;6.37;;;;;;;8.41;67.82;98853.44;5135588;27;40319;-80
2024/03/18 04:55:21;;;;;;;8.63;5.97;;;;;;;8.44;67.88;98853.28;5135211;27;42458;-79
2024/03/18 04:57:54;;;;;;;9.63;6.73;;;;;;;8.46;68.62;98846.13;5118265;27;43943;-79
2024/03/18 05:00:24;;;;;;;8.10;6.00;;;;;;;8.47;68.59;98848.69;5134331;27;39861;-77
2024/03/18 05:02:52;;;;;;;7.30;6.17;;;;;;;8.39;68.13;98836.84;5135804;27;40479;-76
2024/03/18 05:05:20;;;;;;;8.37;6.77;;;;;;;8.49;68.62;98846.81;5134960;27;41823;-75
2024/03/18 05:07:48;;;;;;;8.07;6.80;;;;;;;8.50;68.53;98859.09;5136746;27;42384;-77
2024/03/18 05:10:21;;;;;;;9.77;7.17;;;;;;;8.50;68.46;98852.97;5135036;27;40919;-77
2024/03/18 05:12:48;;;;;;;6.67;5.83;;;;;;;8.45;68.07;98834.72;5133364;27;42034;-75
2024/03/18 05:15:17;;;;;;;8.40;6.10;;;;;;;8.54;68.07;98838.63;5117687;27;43798;-78
2024/03/18 05:17:45;;;;;;;6.83;5.37;;;;;;;8.58;67.75;98848.09;5170061;27;43153;-77
2024/03/18 05:20:13;;;;;;;7.00;5.70;;;;;;;8.22;67.25;98780.53;5134978;27;38939;-79
2024/03/18 05:22:41;;;;;;;7.90;5.40;;;;;;;8.61;67.57;98838.25;5135199;27;40832;-81
2024/03/18 05:25:12;;;;;;;6.53;5.73;;;;;;;8.66;66.93;98843.25;5117666;27;41538;-77
2024/03/18 05:27:40;;;;;;;8.20;5.27;;;;;;;8.70;67.12;98846.59;5166745;27;43106;-83
2024/03/18 05:30:09;;;;;;;8.30;5.00;;;;;;;8.73;66.78;98839.34;5151521;27;40251;-77
2024/03/18 05:32:38;;;;;;;7.40;5.70;;;;;;;8.76;66.63;98841.84;5135086;27;41549;-75
2024/03/18 05:35:07;;;;;;;5.30;4.77;;;;;;;8.80;66.40;98839.84;5169492;27;42476;-77
2024/03/18 05:37:35;;;;;;;6.20;5.10;;;;;;;8.82;66.33;98837.97;5135273;27;41087;-80
2024/03/18 05:40:03;;;;;;;5.67;4.63;;;;;;;8.84;66.40;98833.47;5169198;27;40957;-82
2024/03/18 05:42:32;;;;;;;5.80;4.93;;;;;;;8.87;66.47;98834.16;5134706;27;40622;-78
2024/03/18 05:44:59;;;;;;;8.17;6.00;;;;;;;8.89;66.30;98829.66;5117184;27;43029;-77
2024/03/18 05:47:27;;;;;;;7.00;5.67;;;;;;;8.93;66.47;98835.59;5135781;27;42433;-79
2024/03/18 05:49:56;;;;;;;8.00;5.90;;;;;;;8.95;66.98;98826.66;5135242;27;41089;-78
2024/03/18 05:52:25;;;;;;;9.53;6.67;;;;;;;8.98;67.29;98813.28;5134687;27;41832;-77
2024/03/18 05:54:52;;;;;;;8.70;6.60;;;;;;;8.95;67.41;98810.81;5134105;27;43201;-78
2024/03/18 05:57:20;;;;;;;8.43;6.60;;;;;;;8.98;67.10;98807.13;5151708;27;41246;-77
2024/03/18 05:59:47;;;;;;;8.20;6.30;;;;;;;9.00;66.91;98806.13;5133536;27;39640;-79
2024/03/18 06:02:15;;;;;;;8.77;6.87;;;;;;;9.15;67.40;98824.69;5134324;27;41754;-77
2024/03/18 06:04:42;;;;;;;7.77;6.47;;;;;;;9.20;67.30;98825.25;5134328;27;42656;-74
2024/03/18 06:07:11;;;;;;;7.77;6.03;;;;;;;9.27;67.02;98823.97;5117226;27;41170;-77
2024/03/18 06:09:38;;;;;;;7.50;5.80;;;;;;;9.33;66.80;98820.97;5116896;27;38763;-79
2024/03/18 06:12:06;;;;;;;7.20;5.50;;;;;;;9.40;67.03;98824.09;5135571;27;42410;-79
2024/03/18 06:14:33;;;;;;;7.10;5.47;;;;;;;9.46;66.68;98821.97;5134196;27;41538;-79
2024/03/18 06:17:01;;;;;;;6.27;5.30;;;;;;;9.53;66.77;98820.63;5134085;27;42513;-79
2024/03/18 06:19:33;;;;;;;6.93;5.37;;;;;;;9.60;66.62;98829.09;5117090;27;39941;-80
2024/03/18 06:22:05;;;;;;;7.80;6.03;;;;;;;9.66;66.74;98832.19;5165898;27;41894;-79
2024/03/18 06:27:16;;;;;;;7.80;6.63;;;;;;;9.81;66.68;98829.59;5133509;27;42278;-81
2024/03/18 06:29:44;;;;;;;7.00;5.60;;;;;;;9.90;66.40;98834.31;5150836;27;38943;-76
2024/03/18 06:32:11;;;;;;;8.17;6.60;;;;;;;10.00;65.95;98838.13;5165736;27;41750;-78
2024/03/18 06:34:39;;;;;;;7.97;5.90;;;;;;;10.09;65.49;98838.44;5135193;27;42616;-78
2024/03/18 06:37:06;;;;;;;7.70;5.87;;;;;;;10.18;65.28;98849.38;5134432;27;42426;-76
2024/03/18 06:39:35;;;;;;;6.67;5.70;;;;;;;10.26;64.98;98847.19;5116778;27;38828;-78
2024/03/18 06:42:04;;;;;;;5.97;5.20;;;;;;;10.32;64.74;98845.00;5168633;27;42860;-75
2024/03/18 06:44:32;;;;;;;6.07;4.97;;;;;;;10.30;64.72;98824.84;5133431;27;41677;-78
2024/03/18 06:46:59;;;;;;;7.23;6.10;;;;;;;10.53;64.62;98850.75;5134429;27;42116;-75
2024/03/18 06:49:27;;;;;;;6.33;5.53;;;;;;;10.65;64.38;98843.81;5134053;27;39877;-79
2024/03/18 06:51:54;;;;;;;6.80;5.37;;;;;;;10.70;63.92;98831.16;5134839;27;41870;-80
2024/03/18 06:54:22;;;;;;;6.30;5.17;;;;;;;10.89;63.28;98852.88;5116066;27;42639;-84
2024/03/18 06:56:51;;;;;;;8.67;5.90;;;;;;;10.96;63.26;98856.84;5120614;27;42493;-80
2024/03/18 06:59:18;;;;;;;8.30;6.20;;;;;;;11.01;62.61;98862.69;5119442;27;40080;-75
2024/03/18 07:01:46;;;;;;;7.00;5.57;;;;;;;11.02;62.30;98863.53;5133719;27;40529;-79
2024/03/18 07:04:13;;;;;;;7.03;5.47;;;;;;;11.09;61.96;98870.16;5134956;27;42901;-77
2024/03/18 07:06:41;;;;;;;8.50;6.03;;;;;;;11.10;61.85;98864.75;5133458;27;41088;-79
2024/03/18 07:09:08;;;;;;;6.50;5.40;;;;;;;11.18;61.89;98858.94;5133533;27;40127;-78
2024/03/18 07:11:35;;;;;;;6.37;5.77;;;;;;;11.26;62.14;98869.03;5130392;27;42212;-76
2024/03/18 07:14:04;;;;;;;5.80;5.20;;;;;;;11.31;61.59;98870.47;5132034;27;43564;-74
2024/03/18 07:16:32;;;;;;;6.97;6.13;;;;;;;11.34;61.26;98869.41;5132235;27;42360;-75
2024/03/18 07:18:59;;;;;;;6.40;4.83;;;;;;;11.42;61.08;98867.09;5112631;27;40554;-75
2024/03/18 07:21:26;;;;;;;6.17;5.30;;;;;;;11.55;61.01;98868.00;5131974;27;40664;-75
2024/03/18 07:23:54;;;;;;;7.37;6.00;;;;;;;11.69;61.25;98867.06;5133397;27;42721;-74
2024/03/18 07:26:22;;;;;;;5.87;4.97;;;;;;;11.84;60.81;98874.06;5131730;27;43244;-75
2024/03/18 07:28:50;;;;;;;6.87;5.53;;;;;;;11.95;60.73;98865.34;5132181;27;40239;-75
2024/03/18 07:31:18;;;;;;;8.70;5.43;;;;;;;12.06;60.83;98868.13;5132550;27;41836;-76
2024/03/18 07:33:46;;;;;;;6.37;5.43;;;;;;;12.16;60.21;98864.72;5114674;27;42815;-75
2024/03/18 07:36:14;;;;;;;6.00;5.07;;;;;;;12.27;59.46;98871.97;5132975;27;41797;-75
2024/03/18 07:38:41;;;;;;;6.20;5.03;;;;;;;12.30;58.36;98871.75;5133409;27;40761;-75
2024/03/18 07:41:08;;;;;;;6.87;5.43;;;;;;;12.28;58.11;98878.13;5131462;27;41760;-75
2024/03/18 07:43:36;;;;;;;7.20;5.90;;;;;;;12.25;58.06;98873.88;5131634;27;42949;-75
2024/03/18 07:46:04;;;;;;;6.50;5.57;;;;;;;12.23;58.23;98857.22;5131395;27;43646;-76
2024/03/18 07:48:33;;;;;;;7.63;6.03;;;;;;;12.38;58.23;98864.09;5114462;27;42183;-75
2024/03/18 07:51:02;;;;;;;6.57;5.37;;;;;;;12.48;57.82;98859.84;5131147;27;42709;-76
2024/03/18 07:53:29;;;;;;;6.00;5.37;;;;;;;12.61;57.97;98864.31;5114528;27;41779;-75
2024/03/18 07:56:01;;;;;;;7.33;5.80;;;;;;;12.73;58.24;98861.63;5114092;27;43432;-75
2024/03/18 07:58:29;;;;;;;6.27;5.23;;;;;;;12.80;57.89;98843.44;5132614;27;40148;-76
2024/03/18 08:00:56;;;;;;;7.87;5.57;;;;;;;13.05;57.23;98859.31;5113160;27;40622;-76
2024/03/18 08:03:24;;;;;;;8.17;5.83;;;;;;;13.22;55.69;98869.63;5131445;27;42532;-75
2024/03/18 08:05:53;;;;;;;8.50;5.90;;;;;;;13.45;55.83;98867.06;5130658;27;44347;-76
2024/03/18 08:08:20;;;;;;;6.90;5.57;;;;;;;13.65;54.76;98858.44;5131057;27;40024;-77
2024/03/18 08:10:48;;;;;;;6.03;5.43;;;;;;;13.93;54.63;98878.50;5131097;27;42723;-78
2024/03/18 08:13:15;;;;;;;9.93;5.53;;;;;;;14.11;53.97;98876.25;5132828;27;43666;-75
2024/03/18 08:15:45;;;;;;;6.47;5.20;;;;;;;14.17;52.90;98878.44;5131307;27;43305;-75
2024/03/18 08:18:13;;;;;;;6.67;5.97;;;;;;;14.33;52.43;98877.16;5132405;27;39714;-78
2024/03/18 08:20:40;;;;;;;6.17;5.20;;;;;;;14.48;52.64;98880.44;5131311;27;41951;-77
2024/03/18 08:23:09;;;;;;;8.80;6.00;;;;;;;14.64;53.13;98875.63;5131255;27;43306;-79
2024/03/18 08:25:37;;;;;;;5.57;4.83;;;;;;;14.83;52.70;98879.53;5132171;27;42977;-78
2024/03/18 08:28:04;;;;;;;6.33;5.73;;;;;;;15.00;50.95;98887.84;5132758;27;39669;-78
2024/03/18 08:30:32;;;;;;;5.97;5.43;;;;;;;14.98;50.13;98868.44;5130228;27;40872;-83
2024/03/18 08:33:01;;;;;;;7.47;5.43;;;;;;;15.20;49.35;98880.94;5111878;28;20230;-78
2024/03/18 08:35:28;;;;;;;6.43;5.00;;;;;;;15.43;49.45;98901.25;5093279;28;43785;-77
2024/03/18 08:37:56;;;;;;;6.43;5.70;;;;;;;15.54;48.89;98912.88;5110568;28;40020;-79
2024/03/18 08:40:25;;;;;;;7.23;5.40;;;;;;;15.58;49.58;98911.69;5110671;28;41904;-78
2024/03/18 08:42:52;;;;;;;8.77;6.10;;;;;;;15.59;50.17;98910.69;5110712;28;41654;-79
2024/03/18 08:45:20;;;;;;;6.67;5.27;;;;;;;15.62;49.46;98910.44;5110385;28;41999;-77
2024/03/18 08:47:47;;;;;;;7.13;5.60;;;;;;;15.61;48.72;98898.91;5109830;28;39208;-79
2024/03/18 08:50:15;;;;;;;6.77;5.80;;;;;;;15.66;48.86;98895.88;5109902;28;43728;-77
2024/03/18 08:52:42;;;;;;;6.57;5.53;;;;;;;15.69;48.63;98890.28;5110184;28;42580;-77
2024/03/18 08:55:10;;;;;;;6.00;5.37;;;;;;;15.72;48.25;98904.19;5093051;28;41156;-78
2024/03/18 08:57:39;;;;;;;5.90;5.33;;;;;;;15.81;49.11;98899.94;5092857;28;40119;-78
2024/03/18 09:00:10;;;;;;;7.33;5.57;;;;;;;15.92;48.16;98902.56;5093000;28;40838;-77
2024/03/18 09:02:38;;;;;;;6.80;5.50;;;;;;;15.98;48.03;98901.19;5108328;28;43441;-78
2024/03/18 09:05:07;;;;;;;5.70;5.10;;;;;;;16.11;48.11;98902.69;5109408;28;42282;-75
2024/03/18 09:07:34;;;;;;;5.83;5.33;;;;;;;16.33;48.28;98900.88;5111152;28;40175;-75
2024/03/18 09:10:02;;;;;;;5.20;4.70;;;;;;;16.43;48.16;98896.47;5109453;28;42467;-77
2024/03/18 09:12:29;;;;;;;5.90;4.90;;;;;;;16.48;47.95;98894.22;5111253;28;43401;-76
2024/03/18 09:14:59;;;;;;;6.60;5.30;;;;;;;16.52;47.16;98892.97;5110013;28;41188;-75
2024/03/18 09:17:26;;;;;;;6.23;5.10;;;;;;;16.62;47.23;98895.69;5111406;28;40433;-79
2024/03/18 09:19:54;;;;;;;8.30;5.67;;;;;;;16.77;47.60;98889.91;5093210;28;41646;-75
2024/03/18 09:22:21;;;;;;;6.87;5.37;;;;;;;16.98;46.81;98897.03;5109518;28;43701;-74
2024/03/18 09:24:49;;;;;;;6.03;5.23;;;;;;;17.15;46.95;98891.03;5109895;28;43207;-76
2024/03/18 09:27:17;;;;;;;5.63;4.60;;;;;;;17.36;46.83;98886.44;5109770;28;39766;-76
2024/03/18 09:29:45;;;;;;;6.67;5.47;;;;;;;17.53;45.77;98893.81;5091923;28;41415;-76
2024/03/18 09:32:14;;;;;;;6.63;5.93;;;;;;;17.74;45.64;98895.53;5106331;28;42833;-76
2024/03/18 09:34:42;;;;;;;6.17;5.00;;;;;;;17.92;45.89;98891.19;5110741;27;42227;-76
2024/03/18 09:37:10;;;;;;;6.23;4.93;;;;;;;18.08;45.26;98893.28;5114775;28;40196;-77
2024/03/18 09:39:38;;;;;;;6.07;4.87;;;;;;;18.27;44.39;98893.28;5114021;28;41694;-80
2024/03/18 09:42:08;;;;;;;5.37;4.80;;;;;;;18.71;43.50;98902.50;5114319;28;42372;-76
2024/03/18 09:44:39;;;;;;;7.07;5.30;;;;;;;19.25;43.12;98892.81;5095428;28;40943;-76
2024/03/18 09:47:07;;;;;;;5.90;5.10;;;;;;;19.95;42.63;98893.91;5110523;28;39992;-76
2024/03/18 09:49:37;;;;;;;5.53;4.97;;;;;;;20.47;41.80;98910.16;5113007;28;41902;-77
2024/03/18 09:52:05;;;;;;;8.13;4.90;;;;;;;20.81;40.57;98916.44;5111845;28;42714;-75
2024/03/18 09:54:33;;;;;;;5.50;4.40;;;;;;;21.06;39.57;98918.28;5094689;28;41040;-75
2024/03/18 09:57:07;;;;;;;7.73;5.17;;;;;;;21.11;38.55;98926.72;5113410;28;41102;-78
2024/03/18 09:59:35;;;;;;;5.33;4.83;;;;;;;21.29;38.67;98928.50;5095547;28;40646;-75
2024/03/18 10:02:02;;;;;;;5.93;4.97;;;;;;;21.60;38.60;98926.94;5112452;28;42023;-76
2024/03/18 10:04:29;;;;;;;5.87;4.97;;;;;;;21.91;38.39;98915.53;5112383;28;42097;-82
2024/03/18 10:06:58;;;;;;;6.00;4.70;;;;;;;22.18;37.97;98909.88;5096218;28;38883;-78
2024/03/18 10:09:28;;;;;;;5.43;4.93;;;;;;;22.33;37.14;98924.41;5111944;28;41120;-76
2024/03/18 10:11:56;;;;;;;6.37;5.70;;;;;;;22.35;37.28;98933.16;5112573;28;44847;-77
2024/03/18 10:14:23;;;;;;;6.57;5.27;;;;;;;22.56;37.02;98929.94;5112435;28;42203;-76
2024/03/18 10:16:52;;;;;;;6.03;5.33;;;;;;;22.86;35.51;98947.31;5112849;28;39463;-78
2024/03/18 10:19:19;;;;;;;5.73;5.03;;;;;;;22.85;34.98;98938.38;5112809;28;40690;-79
2024/03/18 10:21:47;;;;;;;5.27;4.30;;;;;;;22.78;36.10;98934.66;5095219;28;41899;-75
2024/03/18 10:24:16;;;;;;;5.93;5.23;;;;;;;22.81;35.55;98938.88;5113150;28;42305;-76
2024/03/18 10:26:45;;;;;;;5.53;5.03;;;;;;;22.82;36.48;98927.91;5095154;28;40292;-76
2024/03/18 10:29:12;;;;;;;5.77;5.17;;;;;;;22.77;35.13;98937.53;5111819;28;42132;-78
2024/03/18 10:31:40;;;;;;;5.60;5.10;;;;;;;22.50;35.48;98936.84;5112248;28;42717;-75
2024/03/18 10:34:08;;;;;;;5.33;4.80;;;;;;;22.35;35.92;98921.53;5112500;28;40793;-79
2024/03/18 10:36:36;;;;;;;7.00;4.90;;;;;;;22.28;36.12;98920.50;5111902;28;39883;-81
2024/03/18 10:39:08;;;;;;;5.47;4.80;;;;;;;22.29;37.03;98916.78;5113767;28;42686;-75
2024/03/18 10:41:39;;;;;;;5.47;4.73;;;;;;;22.37;37.22;98917.66;5113134;28;43851;-79
2024/03/18 10:44:16;;;;;;;5.93;4.63;;;;;;;22.49;37.47;98916.28;5095378;28;42224;-77
2024/03/18 10:46:44;;;;;;;6.27;4.67;;;;;;;22.45;36.74;98912.25;5112211;28;40102;-77
2024/03/18 10:49:17;;;;;;;5.10;4.70;;;;;;;22.61;36.87;98921.34;5112728;28;41462;-79
2024/03/18 10:51:46;;;;;;;5.73;5.13;;;;;;;22.60;35.88;98933.16;5111861;28;42570;-77
2024/03/18 10:54:16;;;;;;;5.20;4.70;;;;;;;22.57;36.50;98921.69;5111905;28;42180;-78
2024/03/18 10:56:45;;;;;;;5.10;4.23;;;;;;;22.71;36.53;98930.09;5108462;28;40104;-77
2024/03/18 10:59:14;;;;;;;6.70;6.03;;;;;;;22.63;36.17;98939.03;5091290;28;41709;-77
2024/03/18 11:01:42;;;;;;;7.60;5.70;;;;;;;22.48;36.11;98935.34;5104554;28;43633;-76
2024/03/18 11:04:19;;;;;;;6.20;5.20;;;;;;;22.26;36.42;98934.16;5111621;28;42229;-76
2024/03/18 11:06:52;;;;;;;6.10;4.80;;;;;;;21.96;35.89;98932.94;5112905;28;39843;-77
2024/03/18 11:09:22;;;;;;;6.60;5.30;;;;;;;21.77;37.15;98912.50;5112651;28;41602;-75
2024/03/18 11:11:51;;;;;;;5.27;4.73;;;;;;;21.88;36.82;98932.09;5112864;28;43468;-77
2024/03/18 11:14:27;;;;;;;5.73;4.90;;;;;;;21.96;37.08;98921.28;5111643;28;42287;-76
2024/03/18 11:16:55;;;;;;;5.43;4.93;;;;;;;22.03;37.30;98925.03;5111512;28;40368;-75
2024/03/18 11:19:24;;;;;;;6.90;5.57;;;;;;;21.98;36.23;98930.91;5111763;28;42556;-75
2024/03/18 11:21:59;;;;;;;4.73;4.33;;;;;;;21.96;36.81;98926.69;5111646;28;43625;-77
2024/03/18 11:24:27;;;;;;;5.70;5.10;;;;;;;21.95;35.63;98933.09;5094238;28;40978;-78
2024/03/18 11:26:57;;;;;;;5.17;4.67;;;;;;;21.89;36.52;98929.19;5111650;28;40933;-76
2024/03/18 11:29:30;;;;;;;4.97;4.47;;;;;;;21.94;36.92;98915.22;5111313;28;40864;-75
2024/03/18 11:32:01;;;;;;;5.20;4.63;;;;;;;21.88;35.94;98904.06;5109693;28;42843;-78
2024/03/18 11:34:28;;;;;;;6.63;4.67;;;;;;;22.11;36.54;98922.38;5112819;28;42799;-75
2024/03/18 11:36:56;;;;;;;6.17;4.13;;;;;;;22.20;36.56;98924.06;5111687;28;40601;-76
2024/03/18 11:39:23;;;;;;;5.47;4.97;;;;;;;22.36;36.63;98915.97;5111024;28;41869;-76
2024/03/18 11:42:01;;;;;;;4.80;4.33;;;;;;;22.68;36.59;98916.94;5128351;27;42731;-76
2024/03/18 11:44:31;;;;;;;5.13;4.47;;;;;;;23.04;35.37;98920.94;5109073;28;42653;-77
2024/03/18 11:47:03;;;;;;;5.87;4.90;;;;;;;23.14;35.37;98932.38;5093710;28;40213;-75